Terminal Aerodrome Forecast
Issued by NWS

Home | Current Version | Previous Version | Text Only | Print | Product List | Glossary On
Versions: 1 2 3 4 5 6 7 8 9 10 11 12 13 14 15 16 17 18 19 20 21 22
000
FTUS45 KGGW 231100
TAFSDY
TAF
KSDY 231130Z 2312/2412 29025G38KT 5SM -SN BKN025 OVC050
     FM231800 31022G31KT P6SM VCSH OVC023
     FM240000 31018KT P6SM BKN030
     FM240600 29008KT P6SM SCT013 BKN080
      AMD LTD TO CLD VIS AND WIND=

USA.gov is the U.S. government's official web portal to all federal, state and local government web resources and services.